Time;durP1;ratioP1;P1;durP2;ratioP2;P2;SDS_P1;SDS_P2;PMS_P1;PMS_P2;Temp;Humidity;BMP_temperature;BMP_pressure;BME280_temperature;BME280_humidity;BME280_pressure;Samples;Min_cycle;Max_cycle;Signal;HPM_P1;HPM_P2
2022/09/03 00:03:03;;;;;;;13.85;9.65;;;;;;;-140.66;100.00;55571.53;5037566;28;20018;-70
2022/09/03 00:06:04;;;;;;;13.63;10.20;;;;;;;-140.66;100.00;55571.53;5034332;28;20068;-71
2022/09/03 00:09:02;;;;;;;16.17;11.15;;;;;;;-140.66;100.00;55571.53;5036175;28;20021;-71
2022/09/03 00:12:06;;;;;;;13.80;10.68;;;;;;;-140.66;100.00;55571.53;5036272;28;20025;-71
2022/09/03 00:15:14;;;;;;;15.05;10.45;;;;;;;-140.66;100.00;55571.53;5037241;28;20036;-71
2022/09/03 00:18:09;;;;;;;12.63;9.73;;;;;;;-140.66;100.00;55571.53;5037627;28;20025;-71
2022/09/03 00:21:07;;;;;;;13.52;9.80;;;;;;;-140.66;100.00;55571.53;5037268;28;20417;-71
2022/09/03 00:23:56;;;;;;;14.57;10.20;;;;;;;-140.66;100.00;55571.53;5037126;28;20071;-71
2022/09/03 00:26:48;;;;;;;12.02;9.57;;;;;;;-140.66;100.00;55571.53;5037436;28;20095;-70
2022/09/03 00:29:45;;;;;;;12.45;9.30;;;;;;;-140.66;100.00;55571.53;5037181;28;20033;-71
2022/09/03 00:32:48;;;;;;;14.90;9.07;;;;;;;-140.66;100.00;55571.53;5036897;28;20029;-71
2022/09/03 00:35:40;;;;;;;14.57;8.80;;;;;;;-140.66;100.00;55571.53;5037189;28;20025;-70
2022/09/03 00:38:28;;;;;;;11.02;9.52;;;;;;;-140.66;100.00;55571.53;5036779;28;20108;-71
2022/09/03 00:41:43;;;;;;;11.20;8.93;;;;;;;-140.66;100.00;55571.53;5036029;28;20112;-71
2022/09/03 00:44:45;;;;;;;10.18;8.20;;;;;;;-140.66;100.00;55571.53;5022805;28;20021;-70
2022/09/03 00:47:40;;;;;;;9.68;7.43;;;;;;;-140.66;100.00;55571.53;5036724;28;20025;-71
2022/09/03 00:51:00;;;;;;;14.23;8.18;;;;;;;-140.66;100.00;55571.53;5022843;28;20369;-70
2022/09/03 00:54:03;;;;;;;9.73;7.85;;;;;;;-140.66;100.00;55571.53;5036808;28;20032;-71
2022/09/03 00:57:24;;;;;;;12.15;7.85;;;;;;;-140.66;100.00;55571.53;5036270;28;20064;-71
2022/09/03 01:00:18;;;;;;;9.10;7.63;;;;;;;-140.66;100.00;55571.53;5036680;28;20077;-71
2022/09/03 01:03:13;;;;;;;9.73;6.90;;;;;;;-140.66;100.00;55571.53;5037354;28;20028;-71
2022/09/03 01:06:05;;;;;;;8.45;7.55;;;;;;;-140.66;100.00;55571.53;5036261;28;20027;-70
2022/09/03 01:09:10;;;;;;;8.52;6.70;;;;;;;-140.66;100.00;55571.53;5037078;28;20027;-71
2022/09/03 01:12:22;;;;;;;9.18;6.72;;;;;;;-140.66;100.00;55571.53;5026434;28;20361;-68
2022/09/03 01:15:35;;;;;;;8.90;6.65;;;;;;;-140.66;100.00;55571.53;5049452;28;20026;-69
2022/09/03 01:18:21;;;;;;;8.48;6.88;;;;;;;-140.66;100.00;55571.53;5033478;28;20049;-70
2022/09/03 01:21:06;;;;;;;8.15;6.93;;;;;;;-140.66;100.00;55571.53;5043974;28;20033;-68
2022/09/03 01:24:30;;;;;;;10.48;7.32;;;;;;;-140.66;100.00;55571.53;5049221;28;20056;-69
2022/09/03 01:27:53;;;;;;;8.25;6.25;;;;;;;-140.66;100.00;55571.53;5049023;28;20100;-68
2022/09/03 01:30:47;;;;;;;6.68;5.50;;;;;;;-140.66;100.00;55571.53;5035948;28;20063;-70
2022/09/03 01:34:00;;;;;;;7.25;6.15;;;;;;;-140.66;100.00;55571.53;5042166;28;20033;-70
2022/09/03 01:36:45;;;;;;;8.75;5.53;;;;;;;-140.66;100.00;55571.53;5014008;28;20347;-70
2022/09/03 01:39:37;;;;;;;7.30;6.07;;;;;;;-140.66;100.00;55571.53;5022740;28;20026;-71
2022/09/03 01:42:35;;;;;;;7.85;6.40;;;;;;;-140.66;100.00;55571.53;5035678;28;20056;-70
2022/09/03 01:45:32;;;;;;;7.18;5.68;;;;;;;-140.66;100.00;55571.53;5036161;28;20306;-71
2022/09/03 01:48:21;;;;;;;8.35;6.75;;;;;;;-140.66;100.00;55571.53;5036084;28;20053;-71
2022/09/03 01:51:18;;;;;;;9.15;6.90;;;;;;;-140.66;100.00;55571.53;5035553;28;20104;-71
2022/09/03 01:54:12;;;;;;;7.65;6.75;;;;;;;-140.66;100.00;55571.53;5036970;28;20429;-71
2022/09/03 01:57:13;;;;;;;11.77;7.10;;;;;;;-140.66;100.00;55571.53;5035102;28;20458;-71
2022/09/03 02:00:12;;;;;;;8.35;6.72;;;;;;;-140.66;100.00;55571.53;5036420;28;20033;-70
2022/09/03 02:03:04;;;;;;;8.73;7.10;;;;;;;-140.66;100.00;55571.53;5036204;28;20056;-71
2022/09/03 02:05:51;;;;;;;8.68;7.38;;;;;;;-140.66;100.00;55571.53;5035067;28;20040;-70
2022/09/03 02:08:38;;;;;;;8.15;7.00;;;;;;;-140.66;100.00;55571.53;5021373;28;20029;-72
2022/09/03 02:11:24;;;;;;;8.77;6.93;;;;;;;-140.66;100.00;55571.53;5034966;28;20104;-71
2022/09/03 02:14:10;;;;;;;8.05;6.38;;;;;;;-140.66;100.00;55571.53;5035320;28;20446;-71
2022/09/03 02:16:59;;;;;;;9.15;6.45;;;;;;;-140.66;100.00;55571.53;5034939;28;20071;-72
2022/09/03 02:19:44;;;;;;;7.45;6.13;;;;;;;-140.66;100.00;55571.53;5035032;28;20083;-71
2022/09/03 02:22:31;;;;;;;8.43;6.63;;;;;;;-140.66;100.00;55571.53;5035223;28;20025;-71
2022/09/03 02:25:17;;;;;;;9.70;6.60;;;;;;;-140.66;100.00;55571.53;5035361;28;20057;-72
2022/09/03 02:28:05;;;;;;;8.70;6.30;;;;;;;-140.66;100.00;55571.53;5034421;28;20356;-71
2022/09/03 02:30:51;;;;;;;7.20;5.57;;;;;;;-140.66;100.00;55571.53;5021164;28;20029;-71
2022/09/03 02:33:41;;;;;;;7.93;5.70;;;;;;;-140.66;100.00;55571.53;5020271;28;20079;-71
2022/09/03 02:36:37;;;;;;;7.35;6.03;;;;;;;-140.66;100.00;55571.53;5020622;28;20032;-72
2022/09/03 02:39:23;;;;;;;10.00;6.43;;;;;;;-140.66;100.00;55571.53;5034778;28;20483;-72
2022/09/03 02:42:12;;;;;;;7.93;6.07;;;;;;;-140.66;100.00;55571.53;5034728;28;20124;-72
2022/09/03 02:45:09;;;;;;;8.75;6.50;;;;;;;-140.66;100.00;55571.53;5035326;28;20025;-72
2022/09/03 02:47:59;;;;;;;8.13;5.88;;;;;;;-140.66;100.00;55571.53;5035037;28;20489;-72
2022/09/03 02:50:45;;;;;;;8.25;6.20;;;;;;;-140.66;100.00;55571.53;5020977;28;20056;-72
2022/09/03 02:53:30;;;;;;;9.07;6.38;;;;;;;-140.66;100.00;55571.53;5034820;28;20033;-72
2022/09/03 02:56:16;;;;;;;6.35;5.70;;;;;;;-140.66;100.00;55571.53;5026059;28;20041;-72
2022/09/03 02:59:07;;;;;;;7.55;5.80;;;;;;;-140.66;100.00;55571.53;5015297;28;20072;-72
2022/09/03 03:01:53;;;;;;;6.90;5.30;;;;;;;-140.66;100.00;55571.53;5013793;28;20426;-72
2022/09/03 03:04:39;;;;;;;8.23;5.78;;;;;;;-140.66;100.00;55571.53;5015727;28;20037;-71
2022/09/03 03:07:26;;;;;;;7.70;6.35;;;;;;;-140.66;100.00;55571.53;5000337;28;20030;-73
2022/09/03 03:10:12;;;;;;;8.23;6.03;;;;;;;-140.66;100.00;55571.53;5015022;28;20072;-73
2022/09/03 03:12:57;;;;;;;7.65;6.05;;;;;;;-140.66;100.00;55571.53;5014990;28;20458;-72
2022/09/03 03:15:43;;;;;;;8.23;6.57;;;;;;;-140.66;100.00;55571.53;5015900;28;20033;-73
2022/09/03 03:18:29;;;;;;;9.13;6.15;;;;;;;-140.66;100.00;55571.53;5015019;28;20037;-73
2022/09/03 03:21:17;;;;;;;9.65;6.47;;;;;;;-140.66;100.00;55571.53;5014263;28;20112;-74
2022/09/03 03:24:03;;;;;;;8.13;6.10;;;;;;;-140.66;100.00;55571.53;5015344;28;20450;-73
2022/09/03 03:26:49;;;;;;;7.05;5.97;;;;;;;-140.66;100.00;55571.53;5015618;28;20116;-74
2022/09/03 03:29:35;;;;;;;9.20;6.30;;;;;;;-140.66;100.00;55571.53;5016026;28;20097;-74
2022/09/03 03:32:21;;;;;;;7.70;6.30;;;;;;;-140.66;100.00;55571.53;5015511;28;20026;-73
2022/09/03 03:35:07;;;;;;;7.50;6.10;;;;;;;-140.66;100.00;55571.53;5014092;28;20170;-73
2022/09/03 03:37:53;;;;;;;7.13;5.75;;;;;;;-140.66;100.00;55571.53;5013833;28;20030;-73
2022/09/03 03:40:38;;;;;;;7.47;6.15;;;;;;;-140.66;100.00;55571.53;5013924;28;20442;-74
2022/09/03 03:43:24;;;;;;;8.35;6.50;;;;;;;-140.66;100.00;55571.53;5014420;28;20040;-74
2022/09/03 03:46:11;;;;;;;7.82;5.65;;;;;;;-140.66;100.00;55571.53;5000390;28;20026;-74
2022/09/03 03:48:57;;;;;;;6.97;5.85;;;;;;;-140.66;100.00;55571.53;5015109;28;20017;-74
2022/09/03 03:51:43;;;;;;;8.73;6.32;;;;;;;-140.66;100.00;55571.53;5000350;28;20466;-74
2022/09/03 03:54:29;;;;;;;7.93;5.90;;;;;;;-140.66;100.00;55571.53;5015367;28;20343;-73
2022/09/03 03:57:15;;;;;;;13.15;6.85;;;;;;;-140.66;100.00;55571.53;5030744;28;20045;-74
2022/09/03 04:00:01;;;;;;;7.60;5.72;;;;;;;-140.66;100.00;55571.53;5033515;28;20064;-74
2022/09/03 04:02:47;;;;;;;9.63;6.63;;;;;;;-140.66;100.00;55571.53;5033813;28;20026;-73
2022/09/03 04:05:33;;;;;;;9.32;6.45;;;;;;;-140.66;100.00;55571.53;5035002;28;20025;-74
2022/09/03 04:08:18;;;;;;;8.35;6.28;;;;;;;-140.66;100.00;55571.53;5019471;28;20482;-74
2022/09/03 04:11:08;;;;;;;9.10;6.43;;;;;;;-140.66;100.00;55571.53;5032907;28;20442;-73
2022/09/03 04:13:54;;;;;;;8.43;6.20;;;;;;;-140.66;100.00;55571.53;5033796;28;20029;-74
2022/09/03 04:16:40;;;;;;;6.70;5.70;;;;;;;-140.66;100.00;55571.53;5032847;28;20033;-73
2022/09/03 04:19:28;;;;;;;7.00;5.40;;;;;;;-140.66;100.00;55571.53;5036956;28;20021;-73
2022/09/03 04:22:14;;;;;;;9.45;5.30;;;;;;;-140.66;100.00;55571.53;5038014;28;20032;-73
2022/09/03 04:25:00;;;;;;;6.95;5.80;;;;;;;-140.66;100.00;55571.53;5036867;28;20036;-73
2022/09/03 04:27:46;;;;;;;8.25;5.60;;;;;;;-140.66;100.00;55571.53;5038679;28;20017;-73
2022/09/03 04:30:31;;;;;;;7.07;5.57;;;;;;;-140.66;100.00;55571.53;5036429;28;20053;-73
2022/09/03 04:33:18;;;;;;;7.60;5.55;;;;;;;-140.66;100.00;55571.53;5037154;28;20029;-73
2022/09/03 04:36:09;;;;;;;6.63;5.38;;;;;;;-140.66;100.00;55571.53;5036550;28;20025;-73
2022/09/03 04:38:58;;;;;;;6.88;5.03;;;;;;;-140.66;100.00;55571.53;5037037;28;20021;-73
2022/09/03 04:41:44;;;;;;;7.85;5.30;;;;;;;-140.66;100.00;55571.53;5036515;28;20472;-73
2022/09/03 04:44:30;;;;;;;7.13;5.30;;;;;;;-140.66;100.00;55571.53;5036354;28;20442;-73
2022/09/03 04:47:15;;;;;;;8.70;5.57;;;;;;;-140.66;100.00;55571.53;5035885;28;20025;-73
2022/09/03 04:50:01;;;;;;;7.28;5.20;;;;;;;-140.66;100.00;55571.53;5022781;28;20021;-73
2022/09/03 04:52:47;;;;;;;6.95;4.97;;;;;;;-140.66;100.00;55571.53;5035853;28;20087;-73
2022/09/03 04:55:35;;;;;;;6.30;5.10;;;;;;;-140.66;100.00;55571.53;5036858;28;20466;-73
2022/09/03 04:58:21;;;;;;;7.95;5.47;;;;;;;-140.66;100.00;55571.53;5036170;28;20025;-73
2022/09/03 05:01:08;;;;;;;8.43;5.20;;;;;;;-140.66;100.00;55571.53;5036978;28;20033;-73
2022/09/03 05:03:56;;;;;;;8.07;5.45;;;;;;;-140.66;100.00;55571.53;5036026;28;20029;-73
2022/09/03 05:06:44;;;;;;;10.23;5.18;;;;;;;-140.66;100.00;55571.53;5036679;28;20109;-73
2022/09/03 05:09:29;;;;;;;8.75;5.30;;;;;;;-140.66;100.00;55571.53;5035930;28;20137;-73
2022/09/03 05:12:16;;;;;;;10.38;5.63;;;;;;;-140.66;100.00;55571.53;5022535;28;20446;-73
2022/09/03 05:15:04;;;;;;;10.13;5.22;;;;;;;-140.66;100.00;55571.53;5037884;28;20377;-73
2022/09/03 05:17:52;;;;;;;10.07;5.63;;;;;;;-140.66;100.00;55571.53;5035902;28;20072;-73
2022/09/03 05:20:38;;;;;;;11.25;6.20;;;;;;;-140.66;100.00;55571.53;5021631;28;20088;-74
2022/09/03 05:23:24;;;;;;;9.65;5.88;;;;;;;-140.66;100.00;55571.53;5035090;28;20045;-73
2022/09/03 05:26:13;;;;;;;8.93;5.50;;;;;;;-140.66;100.00;55571.53;5035971;28;20037;-74
2022/09/03 05:29:01;;;;;;;8.95;4.88;;;;;;;-140.66;100.00;55571.53;5037286;28;20025;-74
2022/09/03 05:31:47;;;;;;;9.82;5.55;;;;;;;-140.66;100.00;55571.53;5036796;28;20123;-73
2022/09/03 05:34:32;;;;;;;7.35;5.57;;;;;;;-140.66;100.00;55571.53;5035915;28;20022;-74
2022/09/03 05:37:18;;;;;;;6.22;5.40;;;;;;;-140.66;100.00;55571.53;5037319;28;20116;-73
2022/09/03 05:40:04;;;;;;;8.93;5.65;;;;;;;-140.66;100.00;55571.53;5021432;28;20047;-74
2022/09/03 05:42:57;;;;;;;7.93;5.80;;;;;;;-140.66;100.00;55571.53;5020927;28;20029;-74
2022/09/03 05:45:43;;;;;;;7.85;5.88;;;;;;;-140.66;100.00;55571.53;5021498;28;20021;-74
2022/09/03 05:48:29;;;;;;;9.93;5.53;;;;;;;-140.66;100.00;55571.53;5022907;28;20482;-74
2022/09/03 05:51:16;;;;;;;11.50;6.68;;;;;;;-140.66;100.00;55571.53;5035840;28;20029;-74
2022/09/03 05:54:02;;;;;;;8.27;6.30;;;;;;;-140.66;100.00;55571.53;5035291;28;20021;-74
2022/09/03 05:56:48;;;;;;;10.30;6.40;;;;;;;-140.66;100.00;55571.53;5036826;28;20049;-74
2022/09/03 05:59:34;;;;;;;11.27;7.22;;;;;;;-140.66;100.00;55571.53;5034441;28;20108;-74
2022/09/03 06:02:20;;;;;;;10.23;7.20;;;;;;;-140.66;100.00;55571.53;5036909;28;20026;-74
2022/09/03 06:05:06;;;;;;;8.27;7.00;;;;;;;-140.66;100.00;55571.53;5021287;28;20029;-74
2022/09/03 06:07:52;;;;;;;12.18;7.68;;;;;;;-140.66;100.00;55571.53;5035535;28;20048;-74
2022/09/03 06:10:38;;;;;;;9.55;7.55;;;;;;;-140.66;100.00;55571.53;5021524;28;20045;-74
2022/09/03 06:13:24;;;;;;;10.48;7.75;;;;;;;-140.66;100.00;55571.53;5036795;28;20025;-74
2022/09/03 06:16:10;;;;;;;8.40;6.80;;;;;;;-140.66;100.00;55571.53;5021038;28;20033;-74
2022/09/03 06:18:56;;;;;;;9.38;6.82;;;;;;;-140.66;100.00;55571.53;5033529;28;20068;-74
2022/09/03 06:21:43;;;;;;;9.60;7.32;;;;;;;-140.66;100.00;55571.53;5022012;28;20033;-74
2022/09/03 06:24:29;;;;;;;10.10;6.68;;;;;;;-140.66;100.00;55571.53;5035771;28;20037;-74
2022/09/03 06:27:15;;;;;;;9.82;7.18;;;;;;;-140.66;100.00;55571.53;5034123;28;20365;-75
2022/09/03 06:30:00;;;;;;;13.30;7.63;;;;;;;-140.66;100.00;55571.53;5021733;28;20168;-74
2022/09/03 06:32:49;;;;;;;9.45;6.60;;;;;;;-140.66;100.00;55571.53;5035413;28;20243;-74
2022/09/03 06:35:36;;;;;;;9.85;7.47;;;;;;;-140.66;100.00;55571.53;5035660;28;20041;-75
2022/09/03 06:38:24;;;;;;;8.57;6.38;;;;;;;-140.66;100.00;55571.53;5035694;28;20032;-75
2022/09/03 06:41:17;;;;;;;7.78;6.80;;;;;;;-140.66;100.00;55571.53;5034180;28;20029;-75
2022/09/03 06:44:05;;;;;;;13.80;9.55;;;;;;;-140.66;100.00;55571.53;5034581;28;20033;-75
2022/09/03 06:46:52;;;;;;;7.50;6.32;;;;;;;-140.66;100.00;55571.53;5034608;28;20044;-74
2022/09/03 06:49:38;;;;;;;8.80;6.30;;;;;;;-140.66;100.00;55571.53;5032935;28;20021;-74
2022/09/03 06:52:24;;;;;;;10.07;6.60;;;;;;;-140.66;100.00;55571.53;5034499;28;20033;-74
2022/09/03 06:55:10;;;;;;;10.18;6.68;;;;;;;-140.66;100.00;55571.53;5034011;28;20116;-75
2022/09/03 06:57:56;;;;;;;10.40;7.10;;;;;;;-140.66;100.00;55571.53;5033639;28;20025;-74
2022/09/03 07:00:43;;;;;;;10.88;7.07;;;;;;;-140.66;100.00;55571.53;5021059;28;20485;-75
2022/09/03 07:03:29;;;;;;;8.10;6.30;;;;;;;-140.66;100.00;55571.53;5020718;28;20040;-75
2022/09/03 07:06:17;;;;;;;10.35;6.43;;;;;;;-140.66;100.00;55571.53;5034047;28;20112;-75
2022/09/03 07:09:07;;;;;;;8.68;6.60;;;;;;;-140.66;100.00;55571.53;5034548;28;20028;-74
2022/09/03 07:11:54;;;;;;;9.98;6.38;;;;;;;-140.66;100.00;55571.53;5034912;28;20068;-75
2022/09/03 07:14:39;;;;;;;10.52;7.35;;;;;;;-140.66;100.00;55571.53;5019441;28;20030;-75
2022/09/03 07:17:25;;;;;;;12.30;7.68;;;;;;;-140.66;100.00;55571.53;5019571;28;20477;-75
2022/09/03 07:20:11;;;;;;;14.52;8.05;;;;;;;-140.66;100.00;55571.53;5034831;28;20056;-75
2022/09/03 07:22:56;;;;;;;14.80;7.90;;;;;;;-140.66;100.00;55571.53;5034420;28;20117;-75
2022/09/03 07:25:42;;;;;;;11.27;8.13;;;;;;;-140.66;100.00;55571.53;5034071;28;20048;-74
2022/09/03 07:28:31;;;;;;;11.55;7.28;;;;;;;-140.66;100.00;55571.53;5034211;28;20205;-74
2022/09/03 07:31:24;;;;;;;8.80;7.65;;;;;;;-140.66;100.00;55571.53;5034238;28;20108;-75
2022/09/03 07:34:12;;;;;;;12.20;8.32;;;;;;;-140.66;100.00;55571.53;5019239;28;20373;-75
2022/09/03 07:36:58;;;;;;;11.45;8.05;;;;;;;-140.66;100.00;55571.53;5033601;28;20025;-75
2022/09/03 07:39:45;;;;;;;13.93;8.38;;;;;;;-140.66;100.00;55571.53;5033370;28;20049;-76
2022/09/03 07:42:31;;;;;;;12.35;8.50;;;;;;;-140.66;100.00;55571.53;5033715;28;20041;-75
2022/09/03 07:45:17;;;;;;;10.30;7.78;;;;;;;-140.66;100.00;55571.53;5034145;28;20494;-75
2022/09/03 07:48:02;;;;;;;13.38;10.73;;;;;;;-140.66;100.00;55571.53;5033145;28;20113;-76
2022/09/03 07:50:48;;;;;;;13.70;9.00;;;;;;;-140.66;100.00;55571.53;5020403;28;20111;-75
2022/09/03 07:53:35;;;;;;;12.63;8.25;;;;;;;-140.66;100.00;55571.53;5022817;28;20043;-76
2022/09/03 07:56:21;;;;;;;10.52;7.28;;;;;;;-140.66;100.00;55571.53;5022809;28;20060;-76
2022/09/03 07:59:08;;;;;;;11.32;8.50;;;;;;;-140.66;100.00;55571.53;5023434;28;20030;-75
2022/09/03 08:01:54;;;;;;;9.85;7.78;;;;;;;-140.66;100.00;55571.53;5023754;28;20029;-76
2022/09/03 08:04:39;;;;;;;11.75;7.80;;;;;;;-140.66;100.00;55571.53;5023835;28;20044;-75
2022/09/03 08:07:28;;;;;;;12.60;8.70;;;;;;;-140.66;100.00;55571.53;5030604;28;20050;-75
2022/09/03 08:10:15;;;;;;;10.10;7.68;;;;;;;-140.66;100.00;55571.53;5037361;28;20441;-75
2022/09/03 08:13:04;;;;;;;11.77;7.70;;;;;;;-140.66;100.00;55571.53;5037700;28;20036;-75
2022/09/03 08:15:54;;;;;;;11.38;7.55;;;;;;;-140.66;100.00;55571.53;5036447;28;20030;-75
2022/09/03 08:18:40;;;;;;;15.88;13.30;;;;;;;-140.66;100.00;55571.53;5023519;28;20121;-75
2022/09/03 08:21:26;;;;;;;14.13;10.35;;;;;;;-140.66;100.00;55571.53;5036181;28;20475;-75
2022/09/03 08:24:15;;;;;;;9.45;8.23;;;;;;;-140.66;100.00;55571.53;5036072;28;20029;-75
2022/09/03 08:27:02;;;;;;;11.55;8.20;;;;;;;-140.66;100.00;55571.53;5037372;28;20037;-75
2022/09/03 08:29:48;;;;;;;12.40;8.18;;;;;;;-140.66;100.00;55571.53;5037181;28;20418;-75
2022/09/03 08:32:34;;;;;;;12.77;8.70;;;;;;;-140.66;100.00;55571.53;5023573;28;20040;-75
2022/09/03 08:35:20;;;;;;;9.52;7.63;;;;;;;-140.66;100.00;55571.53;5034745;28;20442;-75
2022/09/03 08:38:07;;;;;;;10.52;8.18;;;;;;;-140.66;100.00;55571.53;5037504;28;20040;-75
2022/09/03 08:41:01;;;;;;;9.38;6.90;;;;;;;-140.66;100.00;55571.53;5037351;28;20025;-75
2022/09/03 08:43:53;;;;;;;11.63;7.40;;;;;;;-140.66;100.00;55571.53;5021107;28;20060;-75
2022/09/03 08:46:42;;;;;;;12.68;7.60;;;;;;;-140.66;100.00;55571.53;5038181;28;20072;-76
2022/09/03 08:49:57;;;;;;;11.02;7.18;;;;;;;-140.66;100.00;55571.53;5037525;28;20411;-76
2022/09/03 08:52:48;;;;;;;8.80;7.13;;;;;;;-140.66;100.00;55571.53;5029011;28;20038;-76
2022/09/03 08:55:41;;;;;;;12.55;7.22;;;;;;;-140.66;100.00;55571.53;5037345;28;20053;-77
2022/09/03 08:58:31;;;;;;;10.98;7.03;;;;;;;-140.66;100.00;55571.53;5022977;28;20087;-76
2022/09/03 09:01:39;;;;;;;11.57;7.70;;;;;;;-140.66;100.00;55571.53;5036721;28;20036;-75
2022/09/03 09:05:04;;;;;;;9.65;6.53;;;;;;;-140.66;100.00;55571.53;5036090;28;20103;-75
2022/09/03 09:08:01;;;;;;;10.43;6.78;;;;;;;-140.66;100.00;55571.53;5035692;28;20083;-75
2022/09/03 09:10:59;;;;;;;10.07;7.07;;;;;;;-140.66;100.00;55571.53;5036533;28;20041;-76
2022/09/03 09:13:55;;;;;;;9.45;6.97;;;;;;;-140.66;100.00;55571.53;5036380;28;20030;-75
2022/09/03 09:17:08;;;;;;;8.32;5.70;;;;;;;-140.66;100.00;55571.53;5021731;28;20044;-75
2022/09/03 09:20:03;;;;;;;7.57;5.93;;;;;;;-140.66;100.00;55571.53;5022021;28;20047;-76
2022/09/03 09:22:53;;;;;;;7.97;5.70;;;;;;;-140.66;100.00;55571.53;5036398;28;20076;-75
2022/09/03 09:25:47;;;;;;;8.60;5.95;;;;;;;-140.66;100.00;55571.53;5022290;28;20039;-76
2022/09/03 09:28:36;;;;;;;8.38;5.85;;;;;;;-140.66;100.00;55571.53;5036097;28;20033;-76
2022/09/03 09:31:22;;;;;;;8.82;5.93;;;;;;;-140.66;100.00;55571.53;5036658;28;20123;-76
2022/09/03 09:34:08;;;;;;;9.63;6.15;;;;;;;-140.66;100.00;55571.53;5036867;28;20203;-76
2022/09/03 09:36:55;;;;;;;7.55;5.80;;;;;;;-140.66;100.00;55571.53;5036316;28;20087;-76
2022/09/03 09:39:58;;;;;;;6.60;5.65;;;;;;;-140.66;100.00;55571.53;5035767;28;20443;-76
2022/09/03 09:42:44;;;;;;;13.85;6.78;;;;;;;-140.66;100.00;55571.53;5021902;28;20075;-76
2022/09/03 09:45:32;;;;;;;8.52;5.97;;;;;;;-140.66;100.00;55571.53;5021462;28;20473;-76
2022/09/03 09:48:31;;;;;;;8.70;5.95;;;;;;;-140.66;100.00;55571.53;5035774;28;20029;-75
2022/09/03 09:51:22;;;;;;;9.55;5.85;;;;;;;-140.66;100.00;55571.53;5022367;28;20034;-76
2022/09/03 09:54:18;;;;;;;7.78;4.97;;;;;;;-140.66;100.00;55571.53;5035328;28;20065;-77
2022/09/03 09:57:07;;;;;;;8.52;5.80;;;;;;;-140.66;100.00;55571.53;5035314;28;20084;-75
2022/09/03 10:00:11;;;;;;;8.88;5.30;;;;;;;-140.66;100.00;55571.53;5036235;28;20026;-76
2022/09/03 10:02:57;;;;;;;12.32;5.30;;;;;;;-140.66;100.00;55571.53;5036053;28;20346;-76
2022/09/03 10:05:54;;;;;;;6.05;5.35;;;;;;;-140.66;100.00;55571.53;5034545;28;20041;-75
2022/09/03 10:08:41;;;;;;;10.98;5.00;;;;;;;-140.66;100.00;55571.53;5035376;28;20024;-76
2022/09/03 10:11:27;;;;;;;6.00;4.40;;;;;;;-140.66;100.00;55571.53;5035788;28;20033;-76
2022/09/03 10:14:23;;;;;;;9.90;4.80;;;;;;;-140.66;100.00;55571.53;5034107;28;20061;-76
2022/09/03 10:17:16;;;;;;;9.95;4.70;;;;;;;-140.66;100.00;55571.53;5034649;28;20047;-76
2022/09/03 10:20:26;;;;;;;10.60;4.72;;;;;;;-140.66;100.00;55571.53;5037484;28;20056;-76
2022/09/03 10:23:24;;;;;;;6.20;4.40;;;;;;;-140.66;100.00;55571.53;5035170;28;20039;-76
2022/09/03 10:26:15;;;;;;;5.60;3.90;;;;;;;-140.66;100.00;55571.53;5034739;28;20056;-75
2022/09/03 10:29:04;;;;;;;6.05;4.60;;;;;;;-140.66;100.00;55571.53;5034482;28;20021;-77
2022/09/03 10:31:54;;;;;;;6.82;4.53;;;;;;;-140.66;100.00;55571.53;5034942;28;20033;-76
2022/09/03 10:35:01;;;;;;;7.07;4.50;;;;;;;-140.66;100.00;55571.53;5034265;28;20061;-76
2022/09/03 10:38:11;;;;;;;4.70;3.92;;;;;;;-140.66;100.00;55571.53;5034609;28;20033;-76
2022/09/03 10:41:11;;;;;;;8.25;4.88;;;;;;;-140.66;100.00;55571.53;5035126;28;20018;-76
2022/09/03 10:44:09;;;;;;;5.75;4.30;;;;;;;-140.66;100.00;55571.53;5034352;28;20411;-76
2022/09/03 10:47:04;;;;;;;5.13;4.10;;;;;;;-140.66;100.00;55571.53;5034310;28;20029;-76
2022/09/03 10:50:00;;;;;;;6.65;4.20;;;;;;;-140.66;100.00;55571.53;5034439;28;20029;-76
2022/09/03 10:53:16;;;;;;;6.35;4.40;;;;;;;-140.66;100.00;55571.53;5034421;28;20093;-77
2022/09/03 10:56:11;;;;;;;5.80;4.45;;;;;;;-140.66;100.00;55571.53;5034841;28;20136;-77
2022/09/03 10:59:04;;;;;;;6.53;4.18;;;;;;;-140.66;100.00;55571.53;5033929;28;20029;-76
2022/09/03 11:02:04;;;;;;;7.88;4.57;;;;;;;-140.66;100.00;55571.53;5034293;28;20025;-77
2022/09/03 11:04:53;;;;;;;6.97;4.68;;;;;;;-140.66;100.00;55571.53;5032041;28;20068;-76
2022/09/03 11:07:47;;;;;;;8.70;4.70;;;;;;;-140.66;100.00;55571.53;5034095;28;20095;-76
2022/09/03 11:10:39;;;;;;;5.75;4.03;;;;;;;-140.66;100.00;55571.53;5033276;28;20508;-76
2022/09/03 11:13:34;;;;;;;5.75;4.30;;;;;;;-140.66;100.00;55571.53;5035037;28;20342;-76
2022/09/03 11:16:25;;;;;;;7.90;4.70;;;;;;;-140.66;100.00;55571.53;5034891;28;20026;-76
2022/09/03 11:19:16;;;;;;;6.97;4.35;;;;;;;-140.66;100.00;55571.53;5033932;28;20096;-76
2022/09/03 11:22:05;;;;;;;6.88;4.30;;;;;;;-140.66;100.00;55571.53;5020901;28;20029;-76
2022/09/03 11:24:57;;;;;;;7.28;4.50;;;;;;;-140.66;100.00;55571.53;5033919;28;20025;-75
2022/09/03 11:28:12;;;;;;;8.43;4.15;;;;;;;-140.66;100.00;55571.53;5024075;28;20040;-76
2022/09/03 11:31:05;;;;;;;7.28;4.70;;;;;;;-140.66;100.00;55571.53;5007611;28;20033;-76
2022/09/03 11:34:00;;;;;;;9.65;4.65;;;;;;;-140.66;100.00;55571.53;5037629;28;20108;-76
2022/09/03 11:36:46;;;;;;;6.03;4.10;;;;;;;-140.66;100.00;55571.53;5038422;28;20033;-76
2022/09/03 11:39:38;;;;;;;8.52;4.65;;;;;;;-140.66;100.00;55571.53;5037006;28;20496;-77
2022/09/03 11:42:40;;;;;;;7.28;5.10;;;;;;;-140.66;100.00;55571.53;5038773;28;20361;-76
2022/09/03 11:45:26;;;;;;;7.18;5.53;;;;;;;-140.66;100.00;55571.53;5037581;28;20029;-76
2022/09/03 11:48:35;;;;;;;6.90;4.50;;;;;;;-140.66;100.00;55571.53;5037204;28;20040;-75
2022/09/03 11:51:24;;;;;;;5.55;3.80;;;;;;;-140.66;100.00;55571.53;5037609;28;20039;-76
2022/09/03 11:54:12;;;;;;;6.70;4.07;;;;;;;-140.66;100.00;55571.53;5036374;28;20025;-76
2022/09/03 11:57:27;;;;;;;9.82;4.13;;;;;;;-140.66;100.00;55571.53;5037755;28;20386;-76
2022/09/03 12:00:20;;;;;;;5.80;3.80;;;;;;;-140.66;100.00;55571.53;5036650;28;20030;-75
2022/09/03 12:03:06;;;;;;;6.60;4.28;;;;;;;-140.66;100.00;55571.53;5023065;28;20092;-75
2022/09/03 12:06:18;;;;;;;5.43;3.95;;;;;;;-140.66;100.00;55571.53;5037555;28;20040;-77
2022/09/03 12:09:23;;;;;;;5.32;3.90;;;;;;;-140.66;100.00;55571.53;5037074;28;20025;-76
2022/09/03 12:12:30;;;;;;;8.65;4.65;;;;;;;-140.66;100.00;55571.53;5023898;28;20103;-75
2022/09/03 12:15:44;;;;;;;8.40;4.30;;;;;;;-140.66;100.00;55571.53;5037045;28;20409;-75
2022/09/03 12:18:32;;;;;;;6.40;3.50;;;;;;;-140.66;100.00;55571.53;5036747;28;20068;-76
2022/09/03 12:21:19;;;;;;;7.65;3.90;;;;;;;-140.66;100.00;55571.53;5038016;28;20037;-75
2022/09/03 12:24:05;;;;;;;6.40;3.67;;;;;;;-140.66;100.00;55571.53;5037430;28;20029;-77
2022/09/03 12:26:50;;;;;;;6.03;3.70;;;;;;;-140.66;100.00;55571.53;5023082;28;20033;-77
2022/09/03 12:29:39;;;;;;;4.85;3.42;;;;;;;-140.66;100.00;55571.53;5022998;28;20052;-76
2022/09/03 12:32:38;;;;;;;7.13;3.38;;;;;;;-140.66;100.00;55571.53;5036934;28;20033;-76
2022/09/03 12:35:24;;;;;;;5.40;3.17;;;;;;;-140.66;100.00;55571.53;5036816;28;20449;-76
2022/09/03 12:38:12;;;;;;;5.32;3.40;;;;;;;-140.66;100.00;55571.53;5022140;28;20104;-77
2022/09/03 12:40:58;;;;;;;7.32;4.18;;;;;;;-140.66;100.00;55571.53;5036986;28;20052;-76
2022/09/03 12:43:51;;;;;;;9.02;4.07;;;;;;;-140.66;100.00;55571.53;5022502;28;20018;-76
2022/09/03 12:46:36;;;;;;;7.05;3.97;;;;;;;-140.66;100.00;55571.53;5037555;28;20033;-76
2022/09/03 12:49:22;;;;;;;6.38;4.07;;;;;;;-140.66;100.00;55571.53;5036027;28;20080;-76
2022/09/03 12:52:19;;;;;;;4.97;3.83;;;;;;;-140.66;100.00;55571.53;5035293;28;20037;-76
2022/09/03 12:55:15;;;;;;;5.28;4.20;;;;;;;-140.66;100.00;55571.53;5022749;28;20116;-76
2022/09/03 12:58:09;;;;;;;8.65;4.80;;;;;;;-140.66;100.00;55571.53;5036672;28;20366;-75